Abreulandia, Brazil
Current Conditions -  °F | °C
As of 2:00 PM on Saturday 27 Dec 2014 (Local Time) from SBPJ Reporting Station
Broken Clouds Broken Clouds  
Wind Chill: 91°   Ceiling: 2500
Heat Index: 94°   Visibility: 6mi
Dew Point: 66°   Wind: 8mph
Humidity: 43%   Direction: 70°ENE
Pressure: 29.85"   Gusts: NA
Location:  9.62°S, 49.15°W
Report Text: SBPJ 271700Z 07007KT 9999 BKN025 33/19 Q1011
Loading
Personal Weather Stations






























Interactive Weather Map New forecast layout! Learn more

10-Day Weather Forecast

Advertisements
Track Severe Weather on mobile